createdAt,value
2022-12-24T00:01:22.563Z,9.69
2022-12-24T00:03:50.692Z,9.74
2022-12-24T00:06:21.698Z,9.72
2022-12-24T00:08:51.407Z,9.32
2022-12-24T00:11:19.407Z,9.06
2022-12-24T00:13:48.206Z,8.90
2022-12-24T00:16:16.407Z,9.07
2022-12-24T00:18:46.618Z,9.19
2022-12-24T00:21:16.103Z,9.27
2022-12-24T00:23:43.925Z,9.45
2022-12-24T00:26:13.282Z,9.63
2022-12-24T00:28:41.677Z,9.95
2022-12-24T00:31:17.960Z,10.23
2022-12-24T00:33:46.979Z,10.44
2022-12-24T00:36:15.176Z,10.64
2022-12-24T00:38:43.202Z,10.64
2022-12-24T00:41:24.949Z,10.64
2022-12-24T00:43:58.727Z,10.69
2022-12-24T00:46:28.591Z,10.74
2022-12-24T00:48:57.087Z,10.65
2022-12-24T00:51:25.771Z,10.48
2022-12-24T00:53:53.550Z,10.57
2022-12-24T00:56:22.104Z,10.67
2022-12-24T00:58:49.859Z,10.64
2022-12-24T01:01:18.483Z,10.39
2022-12-24T01:03:46.581Z,10.14
2022-12-24T01:06:16.767Z,9.92
2022-12-24T01:08:44.841Z,9.65
2022-12-24T01:11:13.646Z,9.46
2022-12-24T01:13:41.335Z,9.16
2022-12-24T01:16:19.221Z,8.90
2022-12-24T01:18:47.171Z,8.64
2022-12-24T01:21:15.655Z,8.40
2022-12-24T01:23:43.706Z,8.19
2022-12-24T01:26:14.211Z,8.07
2022-12-24T01:28:42.605Z,7.92
2022-12-24T01:31:19.993Z,7.78
2022-12-24T01:33:49.121Z,7.58
2022-12-24T01:36:16.998Z,7.72
2022-12-24T01:38:44.657Z,8.28
2022-12-24T01:41:36.548Z,8.66
2022-12-24T01:44:43.889Z,8.79
2022-12-24T01:47:15.910Z,8.86
2022-12-24T01:49:50.968Z,8.92
2022-12-24T01:52:23.107Z,8.99
2022-12-24T01:54:55.486Z,9.08
2022-12-24T01:57:27.782Z,9.16
2022-12-24T02:00:00.558Z,9.24
2022-12-24T02:02:28.849Z,9.33
2022-12-24T02:05:06.827Z,9.39
2022-12-24T02:07:35.060Z,9.43
2022-12-24T02:10:04.025Z,9.42
2022-12-24T02:12:35.066Z,9.37
2022-12-24T02:15:04.940Z,9.36
2022-12-24T02:18:02.442Z,9.34
2022-12-24T02:20:48.782Z,9.47
2022-12-24T02:23:28.269Z,9.61
2022-12-24T02:26:23.031Z,9.72
2022-12-24T02:29:28.200Z,9.85
2022-12-24T02:32:01.742Z,9.89
2022-12-24T02:34:36.419Z,9.99
2022-12-24T02:37:15.090Z,10.13
2022-12-24T02:39:53.518Z,10.22
2022-12-24T02:42:27.407Z,10.28
2022-12-24T02:45:09.448Z,10.31
2022-12-24T02:47:38.865Z,10.31
2022-12-24T02:50:08.732Z,10.23
2022-12-24T02:52:44.906Z,10.20
2022-12-24T02:55:21.709Z,10.16
2022-12-24T02:58:29.277Z,10.12
2022-12-24T03:01:17.802Z,10.07
2022-12-24T03:04:04.275Z,10.02
2022-12-24T03:06:47.517Z,10.02
2022-12-24T03:09:27.322Z,10.03
2022-12-24T03:12:06.575Z,9.99
2022-12-24T03:14:36.027Z,9.94
2022-12-24T03:17:04.234Z,9.88
2022-12-24T03:19:33.080Z,9.80
2022-12-24T03:22:04.498Z,9.71
2022-12-24T03:24:32.178Z,9.61
2022-12-24T03:27:00.637Z,9.50
2022-12-24T03:29:28.404Z,9.43
2022-12-24T03:32:01.587Z,9.33
2022-12-24T03:34:29.697Z,9.22
2022-12-24T03:36:57.612Z,9.08
2022-12-24T03:39:25.301Z,8.98
2022-12-24T03:41:52.899Z,8.72
2022-12-24T03:44:20.567Z,8.41
2022-12-24T03:46:48.199Z,8.13
2022-12-24T03:49:15.923Z,8.04
2022-12-24T03:51:43.575Z,7.75
2022-12-24T03:54:11.227Z,7.65
2022-12-24T03:56:38.826Z,7.62
2022-12-24T03:59:06.497Z,7.41
2022-12-24T04:01:34.216Z,7.28
2022-12-24T04:04:02.060Z,7.17
2022-12-24T04:06:29.751Z,7.05
2022-12-24T04:08:59.314Z,6.94
2022-12-24T04:11:27.414Z,6.85
2022-12-24T04:13:55.187Z,6.77
2022-12-24T04:16:23.372Z,6.68
2022-12-24T04:18:51.151Z,6.61
2022-12-24T04:21:18.785Z,7.21
2022-12-24T04:23:47.898Z,9.45
2022-12-24T04:26:15.570Z,10.50
2022-12-24T04:28:43.387Z,10.73
2022-12-24T04:31:16.638Z,11.01
2022-12-24T04:33:45.193Z,11.21
2022-12-24T04:36:17.128Z,11.24
2022-12-24T04:38:46.619Z,11.28
2022-12-24T04:41:23.143Z,11.43
2022-12-24T04:43:55.374Z,12.15
2022-12-24T04:46:26.630Z,11.96
2022-12-24T04:48:54.632Z,11.58
2022-12-24T04:51:22.828Z,12.37
2022-12-24T04:53:51.231Z,13.73
2022-12-24T04:56:27.519Z,14.21
2022-12-24T04:58:55.610Z,13.76
2022-12-24T05:01:30.016Z,12.16
2022-12-24T05:03:58.224Z,10.74
2022-12-24T05:06:29.740Z,9.76
2022-12-24T05:08:58.605Z,10.47
2022-12-24T05:11:27.437Z,12.38
2022-12-24T05:13:55.339Z,13.73
2022-12-24T05:16:24.262Z,13.74
2022-12-24T05:18:53.000Z,12.24
2022-12-24T05:21:22.473Z,10.85
2022-12-24T05:24:09.496Z,9.77
2022-12-24T05:26:44.630Z,9.94
2022-12-24T05:29:12.970Z,12.17
2022-12-24T05:31:41.955Z,13.35
2022-12-24T05:34:10.473Z,13.52
2022-12-24T05:36:38.361Z,12.66
2022-12-24T05:39:11.534Z,11.21
2022-12-24T05:41:43.932Z,10.01
2022-12-24T05:44:11.651Z,9.52
2022-12-24T05:46:39.550Z,9.82
2022-12-24T05:49:07.695Z,10.06
2022-12-24T05:51:35.751Z,10.16
2022-12-24T05:54:04.426Z,10.24
2022-12-24T05:56:32.753Z,10.32
2022-12-24T05:59:00.424Z,10.35
2022-12-24T06:01:28.293Z,10.40
2022-12-24T06:03:57.285Z,10.52
2022-12-24T06:06:27.109Z,10.72
2022-12-24T06:08:57.054Z,10.85
2022-12-24T06:11:27.052Z,10.87
2022-12-24T06:13:55.443Z,10.94
2022-12-24T06:16:25.096Z,10.97
2022-12-24T06:18:52.891Z,10.98
2022-12-24T06:21:20.968Z,10.92
2022-12-24T06:23:48.650Z,10.90
2022-12-24T06:26:19.940Z,10.86
2022-12-24T06:28:49.281Z,11.01
2022-12-24T06:31:19.326Z,12.13
2022-12-24T06:33:47.358Z,13.31
2022-12-24T06:36:18.379Z,14.21
2022-12-24T06:38:47.880Z,13.09
2022-12-24T06:41:16.375Z,11.42
2022-12-24T06:43:46.002Z,10.16
2022-12-24T06:46:14.144Z,9.21
2022-12-24T06:48:44.228Z,9.08
2022-12-24T06:51:13.992Z,11.47
2022-12-24T06:53:41.810Z,13.11
2022-12-24T06:56:12.707Z,13.42
2022-12-24T06:58:41.233Z,12.46
2022-12-24T07:01:12.428Z,10.95
2022-12-24T07:06:29.821Z,9.12
2022-12-24T07:08:57.511Z,9.33
2022-12-24T07:11:26.093Z,9.35
2022-12-24T07:13:53.795Z,9.40
2022-12-24T07:16:21.793Z,9.50
2022-12-24T07:18:49.552Z,10.00
2022-12-24T07:21:17.262Z,10.54
2022-12-24T07:23:44.851Z,10.97
2022-12-24T07:26:12.505Z,11.55
2022-12-24T07:28:40.260Z,12.18
2022-12-24T07:31:08.053Z,12.40
2022-12-24T07:33:35.785Z,12.36
2022-12-24T07:36:06.290Z,12.14
2022-12-24T07:38:35.526Z,11.81
2022-12-24T07:41:03.258Z,11.50
2022-12-24T07:43:32.994Z,11.18
2022-12-24T07:46:00.775Z,11.10
2022-12-24T07:48:30.599Z,11.19
2022-12-24T07:50:58.714Z,11.69
2022-12-24T07:53:28.020Z,11.79
2022-12-24T07:55:56.147Z,11.88
2022-12-24T08:03:42.499Z,11.39
2022-12-24T08:06:11.491Z,10.27
2022-12-24T08:08:39.211Z,9.24
2022-12-24T08:11:07.793Z,8.94
2022-12-24T08:13:35.922Z,9.36
2022-12-24T08:16:04.539Z,9.51
2022-12-24T08:18:33.058Z,9.50
2022-12-24T08:21:00.665Z,9.47
2022-12-24T08:23:28.342Z,9.46
2022-12-24T08:25:56.076Z,9.48
2022-12-24T08:28:23.672Z,9.43
2022-12-24T08:30:51.330Z,9.36
2022-12-24T08:33:22.179Z,9.31
2022-12-24T08:35:51.295Z,9.32
2022-12-24T08:38:19.391Z,9.23
2022-12-24T08:40:50.158Z,9.19
2022-12-24T08:43:18.871Z,9.15
2022-12-24T08:45:49.185Z,9.65
2022-12-24T08:48:17.465Z,11.47
2022-12-24T08:50:45.624Z,12.57
2022-12-24T08:53:13.373Z,13.14
2022-12-24T08:55:41.019Z,13.54
2022-12-24T08:58:08.721Z,13.21
2022-12-24T09:00:38.155Z,11.71
2022-12-24T09:06:22.895Z,9.82
2022-12-24T09:08:49.125Z,11.65
2022-12-24T09:11:17.777Z,13.23
2022-12-24T09:13:44.387Z,13.97
2022-12-24T09:16:11.463Z,12.85
2022-12-24T09:18:39.265Z,11.33
2022-12-24T09:21:09.220Z,10.16
2022-12-24T09:23:39.001Z,9.24
2022-12-24T09:26:06.563Z,9.47
2022-12-24T09:28:32.828Z,11.53
2022-12-24T09:31:01.237Z,12.90
2022-12-24T09:33:29.634Z,13.54
2022-12-24T09:35:56.380Z,12.99
2022-12-24T09:38:23.581Z,11.48
2022-12-24T09:40:51.285Z,10.22
2022-12-24T09:43:26.440Z,9.27
2022-12-24T09:46:04.912Z,9.32
2022-12-24T09:48:34.362Z,11.70
2022-12-24T09:51:08.829Z,12.85
2022-12-24T09:53:52.637Z,13.40
2022-12-24T09:56:23.676Z,12.34
2022-12-24T09:59:05.258Z,10.85
2022-12-24T10:01:34.030Z,9.65
2022-12-24T10:04:14.657Z,9.29
2022-12-24T10:06:57.392Z,10.41
2022-12-24T10:09:38.079Z,11.08
2022-12-24T10:12:35.194Z,12.32
2022-12-24T10:15:19.810Z,13.43
2022-12-24T10:18:02.067Z,12.55
2022-12-24T10:20:43.783Z,11.00
2022-12-24T10:23:20.539Z,9.87
2022-12-24T10:26:14.936Z,9.08
2022-12-24T10:28:52.784Z,9.04
2022-12-24T10:31:24.928Z,9.71
2022-12-24T10:33:59.072Z,10.84
2022-12-24T10:36:29.015Z,11.70
2022-12-24T10:38:56.083Z,12.49
2022-12-24T10:41:25.681Z,12.45
2022-12-24T10:43:52.740Z,12.75
2022-12-24T10:46:23.103Z,13.30
2022-12-24T10:48:58.240Z,13.09
2022-12-24T10:51:49.210Z,11.70
2022-12-24T10:54:27.263Z,10.33
2022-12-24T10:57:01.792Z,9.43
2022-12-24T10:59:51.702Z,9.29
2022-12-24T11:02:36.531Z,9.74
2022-12-24T11:05:07.093Z,10.72
2022-12-24T11:07:33.744Z,12.39
2022-12-24T11:10:06.303Z,13.34
2022-12-24T11:12:55.689Z,13.53
2022-12-24T11:15:36.221Z,12.09
2022-12-24T11:18:05.754Z,10.77
2022-12-24T11:20:34.339Z,9.81
2022-12-24T11:23:01.847Z,9.11
2022-12-24T11:25:34.061Z,8.82
2022-12-24T11:28:18.675Z,8.86
2022-12-24T11:30:59.481Z,8.62
2022-12-24T11:33:26.629Z,8.42
2022-12-24T11:36:01.730Z,8.28
2022-12-24T11:38:31.196Z,8.21
2022-12-24T11:40:59.189Z,8.05
2022-12-24T11:43:43.534Z,7.92
2022-12-24T11:46:18.826Z,8.23
2022-12-24T11:48:46.351Z,8.39
2022-12-24T11:51:39.931Z,8.22
2022-12-24T11:54:29.193Z,8.63
2022-12-24T11:56:58.089Z,9.71
2022-12-24T11:59:31.841Z,11.32
2022-12-24T12:05:23.871Z,12.58
2022-12-24T12:07:58.090Z,12.58
2022-12-24T12:10:31.631Z,12.73
2022-12-24T12:13:16.465Z,13.15
2022-12-24T12:16:00.996Z,12.69
2022-12-24T12:18:36.072Z,11.27
2022-12-24T12:21:14.750Z,10.19
2022-12-24T12:23:49.923Z,9.38
2022-12-24T12:26:30.161Z,9.86
2022-12-24T12:29:20.501Z,11.51
2022-12-24T12:31:52.738Z,12.22
2022-12-24T12:34:29.509Z,12.63
2022-12-24T12:37:08.414Z,12.95
2022-12-24T12:39:40.779Z,12.68
2022-12-24T12:42:28.075Z,11.43
2022-12-24T12:45:20.591Z,10.20
2022-12-24T12:48:24.325Z,9.28
2022-12-24T12:51:02.678Z,9.23
2022-12-24T12:54:08.841Z,9.66
2022-12-24T12:56:38.311Z,11.63
2022-12-24T12:59:35.903Z,13.13
2022-12-24T13:02:17.328Z,13.99
2022-12-24T13:04:59.483Z,13.02
2022-12-24T13:07:51.729Z,11.51
2022-12-24T13:10:41.199Z,10.40
2022-12-24T13:13:20.599Z,9.64
2022-12-24T13:16:02.666Z,10.11
2022-12-24T13:18:55.375Z,12.82
2022-12-24T13:21:26.409Z,14.00
2022-12-24T13:24:19.025Z,13.36
2022-12-24T13:27:03.059Z,11.70
2022-12-24T13:29:31.484Z,10.56
2022-12-24T13:32:21.059Z,9.82
2022-12-24T13:34:52.952Z,10.30
2022-12-24T13:37:35.343Z,12.53
2022-12-24T13:40:06.157Z,13.84
2022-12-24T13:42:59.168Z,14.00
2022-12-24T13:45:29.930Z,12.35
2022-12-24T13:48:01.476Z,11.14
2022-12-24T13:50:44.608Z,10.24
2022-12-24T13:53:22.351Z,9.55
2022-12-24T13:55:56.385Z,9.01
2022-12-24T13:58:25.765Z,9.67
2022-12-24T14:00:57.556Z,12.14
2022-12-24T14:06:52.354Z,13.19
2022-12-24T14:09:25.164Z,11.53
2022-12-24T14:11:58.708Z,10.45
2022-12-24T14:14:37.185Z,9.64
2022-12-24T14:17:22.810Z,9.00
2022-12-24T14:20:02.374Z,9.80
2022-12-24T14:22:34.397Z,12.12
2022-12-24T14:25:18.553Z,13.17
2022-12-24T14:27:52.375Z,13.16
2022-12-24T14:30:31.304Z,11.78
2022-12-24T14:32:59.012Z,10.53
2022-12-24T14:35:31.107Z,9.69
2022-12-24T14:38:05.521Z,9.00
2022-12-24T14:40:50.798Z,9.67
2022-12-24T14:43:42.936Z,12.10
2022-12-24T14:46:26.561Z,13.28
2022-12-24T14:49:12.187Z,13.16
2022-12-24T14:52:38.058Z,11.68
2022-12-24T14:55:01.345Z,10.26
2022-12-24T14:57:29.192Z,9.57
2022-12-24T15:00:02.276Z,9.94
2022-12-24T15:05:44.747Z,12.67
2022-12-24T15:08:18.340Z,11.51
2022-12-24T15:10:54.934Z,10.40
2022-12-24T15:13:26.364Z,9.58
2022-12-24T15:15:55.638Z,9.68
2022-12-24T15:18:28.669Z,11.32
2022-12-24T15:21:04.040Z,12.29
2022-12-24T15:23:34.187Z,12.86
2022-12-24T15:26:09.511Z,12.97
2022-12-24T15:28:39.284Z,11.97
2022-12-24T15:31:28.327Z,10.83
2022-12-24T15:33:59.228Z,9.88
2022-12-24T15:36:37.149Z,9.24
2022-12-24T15:39:08.411Z,9.31
2022-12-24T15:42:02.178Z,10.86
2022-12-24T15:44:34.134Z,12.63
2022-12-24T15:47:04.603Z,13.31
2022-12-24T15:49:34.165Z,12.31
2022-12-24T15:52:10.719Z,10.92
2022-12-24T15:54:52.148Z,9.85
2022-12-24T15:57:33.476Z,9.02
2022-12-24T16:00:02.495Z,9.21
2022-12-24T16:05:38.592Z,11.59
2022-12-24T16:08:15.006Z,12.02
2022-12-24T16:10:45.349Z,12.47
2022-12-24T16:13:23.805Z,12.52
2022-12-24T16:15:59.513Z,11.20
2022-12-24T16:18:35.962Z,10.00
2022-12-24T16:21:05.363Z,9.12
2022-12-24T16:23:39.204Z,9.20
2022-12-24T16:26:06.901Z,11.40
2022-12-24T16:28:34.658Z,12.60
2022-12-24T16:31:02.703Z,12.71
2022-12-24T16:33:30.508Z,11.58
2022-12-24T16:35:58.350Z,10.30
2022-12-24T16:38:26.123Z,9.31
2022-12-24T16:40:53.821Z,8.55
2022-12-24T16:43:40.443Z,9.00
2022-12-24T16:46:08.412Z,10.26
2022-12-24T16:48:37.789Z,11.06
2022-12-24T16:51:05.876Z,11.66
2022-12-24T16:53:33.725Z,12.00
2022-12-24T16:56:02.700Z,12.20
2022-12-24T16:58:30.587Z,11.25
2022-12-24T17:00:59.714Z,10.03
2022-12-24T17:03:27.482Z,9.12
2022-12-24T17:05:55.202Z,8.96
2022-12-24T17:08:22.889Z,10.59
2022-12-24T17:10:51.669Z,11.23
2022-12-24T17:13:19.465Z,11.51
2022-12-24T17:15:47.221Z,11.48
2022-12-24T17:18:15.109Z,11.35
2022-12-24T17:20:42.714Z,11.35
2022-12-24T17:23:10.771Z,12.62
2022-12-24T17:25:38.572Z,12.68
2022-12-24T17:28:06.354Z,11.18
2022-12-24T17:30:33.994Z,9.89
2022-12-24T17:33:01.808Z,8.96
2022-12-24T17:35:29.509Z,8.24
2022-12-24T17:37:57.213Z,8.29
2022-12-24T17:40:24.927Z,10.50
2022-12-24T17:42:52.824Z,11.53
2022-12-24T17:45:20.501Z,12.21
2022-12-24T17:47:48.268Z,11.99
2022-12-24T17:50:16.122Z,10.65
2022-12-24T17:52:43.979Z,9.47
2022-12-24T17:55:11.742Z,8.64
2022-12-24T17:57:39.577Z,8.26
2022-12-24T18:00:08.117Z,9.39
2022-12-24T18:05:48.496Z,12.01
2022-12-24T18:08:16.222Z,10.82
2022-12-24T18:10:43.874Z,9.66
2022-12-24T18:13:17.367Z,8.81
2022-12-24T18:15:47.097Z,8.80
2022-12-24T18:18:14.821Z,10.32
2022-12-24T18:20:46.529Z,11.72
2022-12-24T18:23:14.713Z,12.70
2022-12-24T18:25:42.361Z,12.19
2022-12-24T18:28:10.503Z,10.81
2022-12-24T18:30:38.204Z,9.64
2022-12-24T18:33:06.156Z,8.76
2022-12-24T18:35:33.874Z,8.09
2022-12-24T18:38:01.550Z,8.13
2022-12-24T18:40:29.266Z,9.28
2022-12-24T18:42:57.062Z,9.96
2022-12-24T18:45:24.837Z,10.48
2022-12-24T18:47:52.570Z,11.04
2022-12-24T18:50:20.251Z,11.32
2022-12-24T18:52:50.492Z,11.03
2022-12-24T18:55:18.128Z,11.00
2022-12-24T18:57:45.740Z,11.18
2022-12-24T19:00:13.597Z,11.29
2022-12-24T19:02:41.427Z,11.55
2022-12-24T19:05:09.573Z,11.46
2022-12-24T19:07:37.315Z,10.35
2022-12-24T19:10:05.458Z,9.30
2022-12-24T19:12:33.148Z,8.48
2022-12-24T19:15:01.521Z,8.11
2022-12-24T19:17:29.255Z,8.80
2022-12-24T19:19:56.992Z,9.47
2022-12-24T19:22:27.849Z,9.73
2022-12-24T19:24:55.665Z,10.05
2022-12-24T19:27:23.406Z,10.97
2022-12-24T19:29:51.171Z,12.39
2022-12-24T19:32:18.902Z,12.72
2022-12-24T19:34:46.789Z,11.38
2022-12-24T19:37:14.538Z,10.09
2022-12-24T19:39:42.409Z,9.15
2022-12-24T19:42:10.268Z,8.45
2022-12-24T19:44:38.131Z,8.13
2022-12-24T19:47:05.897Z,8.21
2022-12-24T19:49:33.595Z,8.17
2022-12-24T19:52:01.320Z,7.95
2022-12-24T19:54:28.927Z,7.76
2022-12-24T19:56:56.582Z,7.58
2022-12-24T19:59:24.206Z,7.36
2022-12-24T20:01:54.326Z,7.20
2022-12-24T20:04:22.302Z,7.03
2022-12-24T20:06:54.698Z,6.90
2022-12-24T20:09:25.721Z,6.80
2022-12-24T20:11:53.554Z,6.77
2022-12-24T20:14:21.185Z,6.95
2022-12-24T20:16:50.012Z,6.96
2022-12-24T20:19:17.886Z,6.82
2022-12-24T20:21:45.639Z,6.67
2022-12-24T20:24:13.417Z,6.55
2022-12-24T20:26:41.241Z,6.46
2022-12-24T20:29:10.609Z,6.74
2022-12-24T20:31:39.145Z,7.19
2022-12-24T20:34:08.446Z,7.46
2022-12-24T20:36:37.519Z,7.90
2022-12-24T20:39:06.566Z,8.15
2022-12-24T20:41:34.357Z,8.28
2022-12-24T20:44:02.139Z,8.54
2022-12-24T20:46:31.119Z,8.72
2022-12-24T20:48:58.865Z,9.51
2022-12-24T20:51:28.440Z,10.21
2022-12-24T20:53:59.187Z,10.77
2022-12-24T20:56:28.006Z,10.91
2022-12-24T20:58:55.638Z,11.32
2022-12-24T21:01:26.022Z,12.02
2022-12-24T21:06:42.351Z,10.52
2022-12-24T21:09:10.707Z,9.31
2022-12-24T21:11:50.443Z,8.40
2022-12-24T21:14:22.254Z,8.94
2022-12-24T21:16:50.979Z,10.58
2022-12-24T21:19:21.884Z,11.10
2022-12-24T21:21:49.931Z,11.58
2022-12-24T21:24:17.969Z,11.79
2022-12-24T21:26:45.651Z,11.31
2022-12-24T21:29:14.648Z,10.08
2022-12-24T21:31:42.429Z,9.03
2022-12-24T21:34:10.091Z,8.23
2022-12-24T21:36:37.738Z,8.22
2022-12-24T21:39:05.428Z,8.79
2022-12-24T21:41:33.088Z,8.84
2022-12-24T21:44:02.137Z,8.82
2022-12-24T21:46:30.072Z,8.48
2022-12-24T21:49:16.540Z,8.12
2022-12-24T21:51:46.568Z,8.41
2022-12-24T21:54:25.391Z,9.09
2022-12-24T21:57:15.160Z,9.29
2022-12-24T21:59:42.908Z,9.41
2022-12-24T22:02:13.712Z,9.45
2022-12-24T22:04:42.452Z,9.32
2022-12-24T22:07:39.710Z,9.06
2022-12-24T22:10:26.925Z,8.58
2022-12-24T22:12:55.341Z,8.16
2022-12-24T22:25:48.171Z,8.04
2022-12-24T22:28:15.959Z,7.99
2022-12-24T22:30:43.656Z,7.75
2022-12-24T22:33:11.302Z,7.48
2022-12-24T22:35:40.350Z,7.24
2022-12-24T22:38:09.589Z,7.07
2022-12-24T22:40:40.193Z,6.95
2022-12-24T22:43:07.962Z,7.15
2022-12-24T22:45:35.738Z,7.20
2022-12-24T22:48:03.583Z,7.64
2022-12-24T22:50:31.479Z,8.06
2022-12-24T23:03:23.933Z,8.06
2022-12-24T23:05:56.817Z,8.00
2022-12-24T23:08:25.105Z,8.04
2022-12-24T23:10:54.615Z,8.09
2022-12-24T23:13:40.875Z,8.15
2022-12-24T23:16:08.821Z,8.27
2022-12-24T23:18:36.507Z,8.36
2022-12-24T23:21:06.144Z,8.32
2022-12-24T23:23:37.115Z,7.96
2022-12-24T23:26:11.845Z,7.66
2022-12-24T23:28:40.234Z,7.60
2022-12-24T23:31:08.476Z,7.36
2022-12-24T23:33:36.469Z,7.05
2022-12-24T23:36:04.921Z,6.78
2022-12-24T23:38:32.701Z,6.57
2022-12-24T23:41:03.172Z,6.43
2022-12-24T23:43:31.463Z,6.32
2022-12-24T23:45:59.772Z,6.19
2022-12-24T23:48:28.475Z,6.22
2022-12-24T23:51:08.642Z,6.14
2022-12-24T23:53:36.700Z,6.01
2022-12-24T23:56:05.125Z,5.95
2022-12-24T23:58:33.166Z,5.91
